createdAt,value
2022-10-11T00:00:21.407Z,0.30
2022-10-11T00:01:23.981Z,0.30
2022-10-11T00:02:27.479Z,0.30
2022-10-11T00:03:29.818Z,0.40
2022-10-11T00:04:33.296Z,0.30
2022-10-11T00:05:35.879Z,0.30
2022-10-11T00:06:39.817Z,0.30
2022-10-11T00:07:43.644Z,0.30
2022-10-11T00:08:47.109Z,0.30
2022-10-11T00:09:49.646Z,0.40
2022-10-11T00:11:00.515Z,0.30
2022-10-11T00:12:03.609Z,0.30
2022-10-11T00:13:07.711Z,0.30
2022-10-11T00:14:10.123Z,0.30
2022-10-11T00:15:16.279Z,0.30
2022-10-11T00:16:18.747Z,0.40
2022-10-11T00:17:22.667Z,0.30
2022-10-11T00:18:25.313Z,0.30
2022-10-11T00:19:28.681Z,0.20
2022-10-11T00:20:30.817Z,0.30
2022-10-11T00:21:34.365Z,0.30
2022-10-11T00:22:37.754Z,0.30
2022-10-11T00:23:42.869Z,0.25
2022-10-11T00:24:45.128Z,0.20
2022-10-11T00:25:58.077Z,0.25
2022-10-11T00:27:01.475Z,0.30
2022-10-11T00:28:04.109Z,0.30
2022-10-11T00:29:07.511Z,0.30
2022-10-11T00:30:11.827Z,0.30
2022-10-11T00:31:17.127Z,0.30
2022-10-11T00:32:19.565Z,0.30
2022-10-11T00:33:23.153Z,0.30
2022-10-11T00:34:25.555Z,0.30
2022-10-11T00:35:29.001Z,0.30
2022-10-11T00:36:31.810Z,0.30
2022-10-11T00:37:37.912Z,0.20
2022-10-11T00:38:44.634Z,0.30
2022-10-11T00:39:48.598Z,0.30
2022-10-11T00:40:50.823Z,0.22
2022-10-11T00:41:54.321Z,0.30
2022-10-11T00:42:56.599Z,0.30
2022-10-11T00:44:21.165Z,0.30
2022-10-11T00:45:53.260Z,0.30
2022-10-11T00:47:01.409Z,0.30
2022-10-11T00:48:12.036Z,0.30
2022-10-11T00:49:21.033Z,0.30
2022-10-11T00:50:24.775Z,0.30
2022-10-11T00:51:39.083Z,0.30
2022-10-11T00:52:44.269Z,0.30
2022-10-11T00:53:51.193Z,0.30
2022-10-11T00:54:54.334Z,0.30
2022-10-11T00:56:03.408Z,0.30
2022-10-11T00:57:09.270Z,0.30
2022-10-11T00:58:12.827Z,0.20
2022-10-11T00:59:22.929Z,0.28
2022-10-11T01:00:25.408Z,0.30
2022-10-11T01:01:28.979Z,0.30
2022-10-11T01:02:31.528Z,0.20
2022-10-11T01:03:37.593Z,0.20
2022-10-11T01:04:41.221Z,0.30
2022-10-11T01:05:44.633Z,0.20
2022-10-11T01:06:49.900Z,0.28
2022-10-11T01:07:53.341Z,0.30
2022-10-11T01:08:58.243Z,0.30
2022-10-11T01:10:00.751Z,0.30
2022-10-11T01:11:04.590Z,0.30
2022-10-11T01:12:16.249Z,0.30
2022-10-11T01:13:28.777Z,0.20
2022-10-11T01:14:55.599Z,0.30
2022-10-11T01:16:07.414Z,0.30
2022-10-11T01:17:22.397Z,0.20
2022-10-11T01:18:31.385Z,0.30
2022-10-11T01:19:54.163Z,0.30
2022-10-11T01:21:07.601Z,0.30
2022-10-11T01:22:26.623Z,0.30
2022-10-11T01:23:58.041Z,0.30
2022-10-11T01:25:19.448Z,0.30
2022-10-11T01:26:41.146Z,0.20
2022-10-11T01:27:58.227Z,0.30
2022-10-11T01:29:11.194Z,0.30
2022-10-11T01:30:27.166Z,0.30
2022-10-11T01:31:36.371Z,0.30
2022-10-11T01:32:44.372Z,0.30
2022-10-11T01:33:52.327Z,0.30
2022-10-11T01:34:59.896Z,0.20
2022-10-11T01:36:10.131Z,0.22
2022-10-11T01:38:33.161Z,0.30
2022-10-11T01:39:41.042Z,0.30
2022-10-11T01:40:49.545Z,0.30
2022-10-11T01:41:57.635Z,0.20
2022-10-11T01:43:02.062Z,0.30
2022-10-11T01:44:07.848Z,0.30
2022-10-11T01:45:14.741Z,0.20
2022-10-11T01:46:22.900Z,0.30
2022-10-11T01:47:26.185Z,0.28
2022-10-11T01:48:29.749Z,0.20
2022-10-11T01:49:32.281Z,0.30
2022-10-11T01:50:40.664Z,0.30
2022-10-11T01:51:47.548Z,0.30
2022-10-11T01:52:51.974Z,0.20
2022-10-11T01:54:11.586Z,0.20
2022-10-11T01:55:23.383Z,0.30
2022-10-11T01:57:04.501Z,0.30
2022-10-11T01:58:17.512Z,0.20
2022-10-11T01:59:32.501Z,0.30
2022-10-11T02:00:46.791Z,0.30
2022-10-11T02:02:07.041Z,0.30
2022-10-11T02:03:22.499Z,0.20
2022-10-11T02:04:33.226Z,0.22
2022-10-11T02:05:43.585Z,0.28
2022-10-11T02:06:53.549Z,0.25
2022-10-11T02:08:05.137Z,0.30
2022-10-11T02:09:14.938Z,0.20
2022-10-11T02:10:28.238Z,0.30
2022-10-11T02:11:32.949Z,0.28
2022-10-11T02:12:41.100Z,0.30
2022-10-11T02:13:48.429Z,0.20
2022-10-11T02:14:55.882Z,0.30
2022-10-11T02:16:02.122Z,0.20
2022-10-11T02:17:13.169Z,0.30
2022-10-11T02:18:19.442Z,0.30
2022-10-11T02:19:28.224Z,0.20
2022-10-11T02:20:35.655Z,0.30
2022-10-11T02:21:42.817Z,0.30
2022-10-11T02:22:51.748Z,0.20
2022-10-11T02:24:00.211Z,0.20
2022-10-11T02:25:09.328Z,0.30
2022-10-11T02:26:13.899Z,0.30
2022-10-11T02:27:21.559Z,0.20
2022-10-11T02:28:28.733Z,0.30
2022-10-11T02:29:35.365Z,0.30
2022-10-11T02:30:39.364Z,0.30
2022-10-11T02:31:45.291Z,0.30
2022-10-11T02:32:51.368Z,0.30
2022-10-11T02:34:01.526Z,0.30
2022-10-11T02:35:04.775Z,0.30
2022-10-11T02:36:15.304Z,0.30
2022-10-11T02:38:28.175Z,0.30
2022-10-11T02:39:39.569Z,0.30
2022-10-11T02:40:47.910Z,0.30
2022-10-11T02:41:53.056Z,0.30
2022-10-11T02:43:01.314Z,0.30
2022-10-11T02:44:07.518Z,0.30
2022-10-11T02:45:16.262Z,0.20
2022-10-11T02:46:18.914Z,0.30
2022-10-11T02:47:22.413Z,0.30
2022-10-11T02:48:28.490Z,0.30
2022-10-11T02:49:33.715Z,0.40
2022-10-11T02:50:35.951Z,0.40
2022-10-11T02:51:40.565Z,0.40
2022-10-11T02:52:44.063Z,0.30
2022-10-11T02:53:48.676Z,0.30
2022-10-11T02:54:52.058Z,0.30
2022-10-11T02:55:58.723Z,0.30
2022-10-11T02:57:01.387Z,0.22
2022-10-11T02:58:04.933Z,0.30
2022-10-11T02:59:07.320Z,0.30
2022-10-11T03:00:12.092Z,0.25
2022-10-11T03:01:14.614Z,0.20
2022-10-11T03:02:17.888Z,0.20
2022-10-11T03:03:20.588Z,0.30
2022-10-11T03:04:25.376Z,0.30
2022-10-11T03:05:27.533Z,0.25
2022-10-11T03:06:30.662Z,0.30
2022-10-11T03:07:32.721Z,0.30
2022-10-11T03:08:36.626Z,0.20
2022-10-11T03:09:39.197Z,0.20
2022-10-11T03:10:42.918Z,0.20
2022-10-11T03:11:47.690Z,0.30
2022-10-11T03:12:51.343Z,0.20
2022-10-11T03:13:54.004Z,0.30
2022-10-11T03:14:57.392Z,0.22
2022-10-11T03:16:03.634Z,0.20
2022-10-11T03:17:31.058Z,0.20
2022-10-11T03:18:31.209Z,0.25
2022-10-11T03:19:34.827Z,0.20
2022-10-11T03:20:38.116Z,0.30
2022-10-11T03:21:40.678Z,0.30
2022-10-11T03:22:44.084Z,0.20
2022-10-11T03:23:46.417Z,0.20
2022-10-11T03:24:49.861Z,0.20
2022-10-11T03:25:54.253Z,0.30
2022-10-11T03:26:57.629Z,0.30
2022-10-11T03:27:59.840Z,0.30
2022-10-11T03:29:03.273Z,0.30
2022-10-11T03:30:08.834Z,0.30
2022-10-11T03:31:12.440Z,0.30
2022-10-11T03:32:14.861Z,0.30
2022-10-11T03:33:18.578Z,0.30
2022-10-11T03:34:21.006Z,0.30
2022-10-11T03:35:28.378Z,0.28
2022-10-11T03:36:31.731Z,0.30
2022-10-11T03:37:34.138Z,0.22
2022-10-11T03:38:37.506Z,0.30
2022-10-11T03:39:39.643Z,0.30
2022-10-11T03:40:43.818Z,0.30
2022-10-11T03:41:46.164Z,0.30
2022-10-11T03:42:49.762Z,0.30
2022-10-11T03:43:51.811Z,0.30
2022-10-11T03:45:01.912Z,0.28
2022-10-11T03:46:04.547Z,0.25
2022-10-11T03:47:08.331Z,0.20
2022-10-11T03:48:13.499Z,0.28
2022-10-11T03:49:16.977Z,0.30
2022-10-11T03:50:19.379Z,0.30
2022-10-11T03:51:24.269Z,0.20
2022-10-11T03:52:26.455Z,0.25
2022-10-11T03:53:30.092Z,0.25
2022-10-11T03:54:34.481Z,0.35
2022-10-11T03:55:40.337Z,0.28
2022-10-11T03:56:42.559Z,0.30
2022-10-11T03:57:45.892Z,0.30
2022-10-11T03:58:48.550Z,0.30
2022-10-11T03:59:51.981Z,0.30
2022-10-11T04:00:54.166Z,0.30
2022-10-11T04:01:57.359Z,0.30
2022-10-11T04:03:00.224Z,0.30
2022-10-11T04:04:03.769Z,0.30
2022-10-11T04:05:06.762Z,0.40
2022-10-11T04:06:10.375Z,0.40
2022-10-11T04:07:15.952Z,0.43
2022-10-11T04:08:19.642Z,0.30
2022-10-11T04:09:21.753Z,0.35
2022-10-11T04:10:24.980Z,0.40
2022-10-11T04:11:27.454Z,0.30
2022-10-11T04:12:30.961Z,0.30
2022-10-11T04:13:33.150Z,0.40
2022-10-11T04:14:36.529Z,0.40
2022-10-11T04:15:39.745Z,0.30
2022-10-11T04:16:43.137Z,0.40
2022-10-11T04:17:48.308Z,0.40
2022-10-11T04:18:51.472Z,0.40
2022-10-11T04:19:53.791Z,0.40
2022-10-11T04:20:56.996Z,0.38
2022-10-11T04:22:00.301Z,0.40
2022-10-11T04:23:05.321Z,0.40
2022-10-11T04:24:08.375Z,0.30
2022-10-11T04:25:11.876Z,0.30
2022-10-11T04:26:14.215Z,0.40
2022-10-11T04:27:17.372Z,0.30
2022-10-11T04:28:19.848Z,0.30
2022-10-11T04:29:32.200Z,0.50
2022-10-11T04:30:35.050Z,0.40
2022-10-11T04:31:38.266Z,0.40
2022-10-11T04:32:40.525Z,0.35
2022-10-11T04:33:44.074Z,0.50
2022-10-11T04:34:46.555Z,0.40
2022-10-11T04:35:52.289Z,0.43
2022-10-11T04:36:54.747Z,0.40
2022-10-11T04:37:58.029Z,0.40
2022-10-11T04:39:02.046Z,0.38
2022-10-11T04:40:05.894Z,0.30
2022-10-11T04:41:09.194Z,0.30
2022-10-11T04:42:13.085Z,0.30
2022-10-11T04:43:16.775Z,0.40
2022-10-11T04:44:20.316Z,0.30
2022-10-11T04:45:22.848Z,0.40
2022-10-11T04:46:26.753Z,0.50
2022-10-11T04:47:28.986Z,0.47
2022-10-11T04:48:32.861Z,0.40
2022-10-11T04:49:35.022Z,0.40
2022-10-11T04:50:38.525Z,0.40
2022-10-11T04:51:43.147Z,0.40
2022-10-11T04:52:46.568Z,0.40
2022-10-11T04:53:49.494Z,0.40
2022-10-11T04:54:54.294Z,0.40
2022-10-11T04:55:58.728Z,0.40
2022-10-11T04:57:02.088Z,0.30
2022-10-11T04:58:04.221Z,0.35
2022-10-11T04:59:07.249Z,0.40
2022-10-11T05:00:11.235Z,0.40
2022-10-11T05:01:14.651Z,0.40
2022-10-11T05:02:17.852Z,0.40
2022-10-11T05:03:21.389Z,0.40
2022-10-11T05:04:24.893Z,0.40
2022-10-11T05:05:28.426Z,0.40
2022-10-11T05:06:30.615Z,0.40
2022-10-11T05:07:33.893Z,0.40
2022-10-11T05:08:36.074Z,0.40
2022-10-11T05:09:39.566Z,0.40
2022-10-11T05:10:43.428Z,0.40
2022-10-11T05:11:46.991Z,0.40
2022-10-11T05:12:49.408Z,0.50
2022-10-11T05:13:52.614Z,0.40
2022-10-11T05:14:54.686Z,0.50
2022-10-11T05:15:58.659Z,0.50
2022-10-11T05:17:01.028Z,0.47
2022-10-11T05:18:04.229Z,0.40
2022-10-11T05:19:06.407Z,0.50
2022-10-11T05:20:10.660Z,0.40
2022-10-11T05:21:17.876Z,0.40
2022-10-11T05:22:21.458Z,0.50
2022-10-11T05:23:24.010Z,0.50
2022-10-11T05:24:28.499Z,0.47
2022-10-11T05:25:30.668Z,0.40
2022-10-11T05:26:35.476Z,0.40
2022-10-11T05:27:37.699Z,0.47
2022-10-11T05:28:41.030Z,0.50
2022-10-11T05:29:43.565Z,0.40
2022-10-11T05:30:46.869Z,0.40
2022-10-11T05:31:49.939Z,0.50
2022-10-11T05:32:51.952Z,0.50
2022-10-11T05:33:55.267Z,0.50
2022-10-11T05:34:57.712Z,0.50
2022-10-11T05:36:02.030Z,0.50
2022-10-11T05:37:04.614Z,0.50
2022-10-11T05:38:08.125Z,0.50
2022-10-11T05:39:11.471Z,0.50
2022-10-11T05:40:13.931Z,0.50
2022-10-11T05:41:18.360Z,0.50
2022-10-11T05:42:22.326Z,0.50
2022-10-11T05:43:25.795Z,0.40
2022-10-11T05:44:34.308Z,0.40
2022-10-11T05:45:38.373Z,0.40
2022-10-11T05:46:41.828Z,0.40
2022-10-11T05:47:44.448Z,0.40
2022-10-11T05:48:47.872Z,0.50
2022-10-11T05:49:50.166Z,0.47
2022-10-11T05:50:53.560Z,0.52
2022-10-11T05:51:56.891Z,0.50
2022-10-11T05:53:01.671Z,0.40
2022-10-11T05:54:05.243Z,0.50
2022-10-11T05:55:08.276Z,0.47
2022-10-11T05:56:21.274Z,0.50
2022-10-11T05:57:25.970Z,0.50
2022-10-11T05:58:28.661Z,0.50
2022-10-11T05:59:32.141Z,0.50
2022-10-11T06:00:36.831Z,0.57
2022-10-11T06:01:40.385Z,0.60
2022-10-11T06:02:42.780Z,0.50
2022-10-11T06:03:49.313Z,0.50
2022-10-11T06:04:51.463Z,0.50
2022-10-11T06:06:03.223Z,0.50
2022-10-11T06:07:07.307Z,0.50
2022-10-11T06:08:11.242Z,0.60
2022-10-11T06:09:13.852Z,0.50
2022-10-11T06:10:17.357Z,0.50
2022-10-11T06:11:22.102Z,0.50
2022-10-11T06:12:26.991Z,0.50
2022-10-11T06:13:29.156Z,0.50
2022-10-11T06:14:32.617Z,0.50
2022-10-11T06:15:35.175Z,0.50
2022-10-11T06:16:38.759Z,0.50
2022-10-11T06:17:41.963Z,0.52
2022-10-11T06:18:44.281Z,0.40
2022-10-11T06:19:47.753Z,0.47
2022-10-11T06:20:50.274Z,0.45
2022-10-11T06:21:56.214Z,0.40
2022-10-11T06:23:00.220Z,0.50
2022-10-11T06:24:03.605Z,0.50
2022-10-11T06:25:06.865Z,0.50
2022-10-11T06:26:11.707Z,0.50
2022-10-11T06:27:14.407Z,0.50
2022-10-11T06:28:19.308Z,0.50
2022-10-11T06:29:22.473Z,0.50
2022-10-11T06:30:25.940Z,0.50
2022-10-11T06:31:31.846Z,0.50
2022-10-11T06:32:33.880Z,0.50
2022-10-11T06:33:37.621Z,0.50
2022-10-11T06:34:40.003Z,0.50
2022-10-11T06:35:43.792Z,0.50
2022-10-11T06:36:46.093Z,0.50
2022-10-11T06:37:49.592Z,0.50
2022-10-11T06:38:52.167Z,0.45
2022-10-11T06:39:55.697Z,0.40
2022-10-11T06:40:57.981Z,0.40
2022-10-11T06:42:01.088Z,0.50
2022-10-11T06:43:03.877Z,0.50
2022-10-11T06:44:13.269Z,0.50
2022-10-11T06:45:16.391Z,0.50
2022-10-11T06:46:21.063Z,0.50
2022-10-11T06:47:23.423Z,0.45
2022-10-11T06:48:26.931Z,0.40
2022-10-11T06:49:30.833Z,0.40
2022-10-11T06:50:58.051Z,0.35
2022-10-11T06:51:56.251Z,0.40
2022-10-11T06:52:58.981Z,0.40
2022-10-11T06:54:02.994Z,0.40
2022-10-11T06:55:06.458Z,0.40
2022-10-11T06:56:11.698Z,0.40
2022-10-11T06:57:14.036Z,0.50
2022-10-11T06:58:20.532Z,0.40
2022-10-11T06:59:25.529Z,0.47
2022-10-11T07:00:27.939Z,0.40
2022-10-11T07:01:31.477Z,0.40
2022-10-11T07:02:36.373Z,0.50
2022-10-11T07:03:39.989Z,0.40
2022-10-11T07:04:42.173Z,0.40
2022-10-11T07:05:45.546Z,0.47
2022-10-11T07:06:47.845Z,0.40
2022-10-11T07:07:51.377Z,0.40
2022-10-11T07:08:54.129Z,0.40
2022-10-11T07:10:00.384Z,0.40
2022-10-11T07:11:04.306Z,0.40
2022-10-11T07:12:08.505Z,0.40
2022-10-11T07:13:16.289Z,0.50
2022-10-11T07:14:20.503Z,0.60
2022-10-11T07:15:24.249Z,0.45
2022-10-11T07:16:28.243Z,0.40
2022-10-11T07:17:31.545Z,0.40
2022-10-11T07:18:33.710Z,0.40
2022-10-11T07:19:37.142Z,0.40
2022-10-11T07:20:39.714Z,0.40
2022-10-11T07:21:43.103Z,0.40
2022-10-11T07:22:45.699Z,0.50
2022-10-11T07:23:49.288Z,0.50
2022-10-11T07:24:53.151Z,0.50
2022-10-11T07:25:56.423Z,0.50
2022-10-11T07:26:59.704Z,0.40
2022-10-11T07:28:01.885Z,0.47
2022-10-11T07:29:05.901Z,0.40
2022-10-11T07:30:11.864Z,0.40
2022-10-11T07:31:18.744Z,0.45
2022-10-11T07:32:21.069Z,0.40
2022-10-11T07:33:24.870Z,0.40
2022-10-11T07:34:28.097Z,0.40
2022-10-11T07:35:31.006Z,0.40
2022-10-11T07:36:34.474Z,0.40
2022-10-11T07:37:39.822Z,0.40
2022-10-11T07:38:45.165Z,0.50
2022-10-11T07:39:50.436Z,0.50
2022-10-11T07:40:52.587Z,0.40
2022-10-11T07:41:55.657Z,0.45
2022-10-11T07:42:58.224Z,0.45
2022-10-11T07:44:01.535Z,0.40
2022-10-11T07:45:04.102Z,0.40
2022-10-11T07:46:08.515Z,0.40
2022-10-11T07:47:13.055Z,0.40
2022-10-11T07:48:15.234Z,0.40
2022-10-11T07:49:18.283Z,0.40
2022-10-11T07:50:20.407Z,0.47
2022-10-11T07:51:25.034Z,0.40
2022-10-11T07:52:26.977Z,0.40
2022-10-11T07:53:30.181Z,0.40
2022-10-11T07:54:33.800Z,0.40
2022-10-11T07:55:40.062Z,0.32
2022-10-11T07:56:42.892Z,0.40
2022-10-11T07:57:44.769Z,0.40
2022-10-11T07:58:51.006Z,0.40
2022-10-11T07:59:52.902Z,0.40
2022-10-11T08:00:55.881Z,0.40
2022-10-11T08:01:57.798Z,0.40
2022-10-11T08:03:04.792Z,0.47
2022-10-11T08:04:07.680Z,0.40
2022-10-11T08:05:09.570Z,0.30
2022-10-11T08:06:14.467Z,0.30
2022-10-11T08:07:17.324Z,0.40
2022-10-11T08:08:19.393Z,0.40
2022-10-11T08:09:22.230Z,0.35
2022-10-11T08:10:24.284Z,0.30
2022-10-11T08:11:29.134Z,0.40
2022-10-11T08:12:31.154Z,0.40
2022-10-11T08:13:34.222Z,0.40
2022-10-11T08:14:37.330Z,0.40
2022-10-11T08:15:39.831Z,0.40
2022-10-11T08:16:42.793Z,0.40
2022-10-11T08:17:45.158Z,0.40
2022-10-11T08:18:49.586Z,0.30
2022-10-11T08:19:52.014Z,0.30
2022-10-11T08:21:26.729Z,0.40
2022-10-11T08:22:28.692Z,0.25
2022-10-11T08:23:32.126Z,0.30
2022-10-11T08:24:38.195Z,0.30
2022-10-11T08:25:43.916Z,0.30
2022-10-11T08:26:46.851Z,0.40
2022-10-11T08:27:48.991Z,0.30
2022-10-11T08:28:52.121Z,0.38
2022-10-11T08:29:54.729Z,0.40
2022-10-11T08:30:57.712Z,0.40
2022-10-11T08:32:00.767Z,0.40
2022-10-11T08:33:07.535Z,0.40
2022-10-11T08:34:12.843Z,0.40
2022-10-11T08:35:15.133Z,0.40
2022-10-11T08:36:18.502Z,0.40
2022-10-11T08:37:20.503Z,0.40
2022-10-11T08:38:24.449Z,0.40
2022-10-11T08:39:27.519Z,0.50
2022-10-11T08:40:35.002Z,0.50
2022-10-11T08:41:43.019Z,0.52
2022-10-11T08:42:49.175Z,0.50
2022-10-11T08:44:03.030Z,0.50
2022-10-11T08:45:14.527Z,0.50
2022-10-11T08:46:23.703Z,0.50
2022-10-11T08:47:32.532Z,0.40
2022-10-11T08:48:37.864Z,0.40
2022-10-11T08:49:43.001Z,0.50
2022-10-11T08:50:49.205Z,0.43
2022-10-11T08:52:00.330Z,0.50
2022-10-11T08:53:08.179Z,0.38
2022-10-11T08:54:18.313Z,0.38
2022-10-11T08:56:28.832Z,0.40
2022-10-11T08:57:36.940Z,0.40
2022-10-11T08:58:45.766Z,0.40
2022-10-11T08:59:52.482Z,0.30
2022-10-11T09:00:58.004Z,0.30
2022-10-11T09:02:13.710Z,0.30
2022-10-11T09:03:28.217Z,0.30
2022-10-11T09:04:32.502Z,0.40
2022-10-11T09:05:43.101Z,0.40
2022-10-11T09:07:03.946Z,0.40
2022-10-11T09:08:19.215Z,0.38
2022-10-11T09:09:41.347Z,0.40
2022-10-11T09:10:58.372Z,0.40
2022-10-11T09:12:16.972Z,0.30
2022-10-11T09:13:41.944Z,0.43
2022-10-11T09:15:05.032Z,0.40
2022-10-11T09:16:23.355Z,0.30
2022-10-11T09:17:44.670Z,0.30
2022-10-11T09:19:11.533Z,0.30
2022-10-11T09:20:46.033Z,0.40
2022-10-11T09:21:56.678Z,0.43
2022-10-11T09:23:05.702Z,0.40
2022-10-11T09:24:28.653Z,0.30
2022-10-11T09:25:36.575Z,0.30
2022-10-11T09:26:48.801Z,0.40
2022-10-11T09:28:03.553Z,0.32
2022-10-11T09:29:16.156Z,0.30
2022-10-11T09:30:20.448Z,0.32
2022-10-11T09:31:24.532Z,0.30
2022-10-11T09:32:32.341Z,0.32
2022-10-11T09:33:40.138Z,0.30
2022-10-11T09:34:42.600Z,0.40
2022-10-11T09:35:51.512Z,0.40
2022-10-11T09:37:00.885Z,0.30
2022-10-11T09:38:09.237Z,0.30
2022-10-11T09:39:24.960Z,0.40
2022-10-11T09:40:42.208Z,0.30
2022-10-11T09:41:54.971Z,0.40
2022-10-11T09:42:59.546Z,0.30
2022-10-11T09:44:03.114Z,0.30
2022-10-11T09:45:16.754Z,0.40
2022-10-11T09:46:24.812Z,0.32
2022-10-11T09:47:29.148Z,0.30
2022-10-11T09:48:41.145Z,0.30
2022-10-11T09:49:50.442Z,0.32
2022-10-11T09:50:58.668Z,0.23
2022-10-11T09:52:04.377Z,0.20
2022-10-11T09:53:08.141Z,0.20
2022-10-11T09:54:11.945Z,0.20
2022-10-11T09:55:31.408Z,0.30
2022-10-11T09:56:41.423Z,0.32
2022-10-11T09:57:56.124Z,0.50
2022-10-11T09:59:19.934Z,0.30
2022-10-11T10:00:28.136Z,0.30
2022-10-11T10:01:33.528Z,0.30
2022-10-11T10:02:47.134Z,0.30
2022-10-11T10:04:05.275Z,0.40
2022-10-11T10:05:19.761Z,0.40
2022-10-11T10:06:25.765Z,0.40
2022-10-11T10:07:31.344Z,0.30
2022-10-11T10:08:33.648Z,0.40
2022-10-11T10:11:38.105Z,0.40
2022-10-11T10:12:41.137Z,0.30
2022-10-11T10:13:47.034Z,0.30
2022-10-11T10:15:01.502Z,0.38
2022-10-11T10:16:06.132Z,0.40
2022-10-11T10:17:17.942Z,0.40
2022-10-11T10:18:23.780Z,0.40
2022-10-11T10:19:28.018Z,0.30
2022-10-11T10:20:34.612Z,0.30
2022-10-11T10:21:38.769Z,0.32
2022-10-11T10:22:41.918Z,0.38
2022-10-11T10:23:44.710Z,0.30
2022-10-11T10:24:48.861Z,0.40
2022-10-11T10:25:53.414Z,0.30
2022-10-11T10:27:19.372Z,0.40
2022-10-11T10:28:28.089Z,0.30
2022-10-11T10:29:30.478Z,0.32
2022-10-11T10:30:35.656Z,0.40
2022-10-11T10:32:08.788Z,0.30
2022-10-11T10:33:07.005Z,0.40
2022-10-11T10:34:15.944Z,0.40
2022-10-11T10:35:31.103Z,0.40
2022-10-11T10:36:37.967Z,0.38
2022-10-11T10:37:45.357Z,0.40
2022-10-11T10:38:54.548Z,0.40
2022-10-11T10:40:03.702Z,0.40
2022-10-11T10:41:13.942Z,0.40
2022-10-11T10:42:19.070Z,0.30
2022-10-11T10:43:25.177Z,0.45
2022-10-11T10:44:28.671Z,0.50
2022-10-11T10:45:44.979Z,0.40
2022-10-11T10:47:02.440Z,0.40
2022-10-11T10:48:16.733Z,0.30
2022-10-11T10:49:53.674Z,0.40
2022-10-11T10:50:54.908Z,0.40
2022-10-11T10:52:14.185Z,0.47
2022-10-11T10:53:25.703Z,0.40
2022-10-11T10:54:41.794Z,0.40
2022-10-11T10:55:48.268Z,0.30
2022-10-11T10:56:57.302Z,0.40
2022-10-11T10:58:19.843Z,0.40
2022-10-11T10:59:45.969Z,0.40
2022-10-11T11:00:50.128Z,0.40
2022-10-11T11:02:11.108Z,0.40
2022-10-11T11:03:31.122Z,0.32
2022-10-11T11:04:34.441Z,0.30
2022-10-11T11:05:46.206Z,0.40
2022-10-11T11:06:55.550Z,0.40
2022-10-11T11:08:09.491Z,0.40
2022-10-11T11:09:32.081Z,0.40
2022-10-11T11:10:40.714Z,0.40
2022-10-11T11:11:55.925Z,0.40
2022-10-11T11:13:09.551Z,0.30
2022-10-11T11:14:26.127Z,0.40
2022-10-11T11:15:38.233Z,0.40
2022-10-11T11:16:46.163Z,0.50
2022-10-11T11:18:03.281Z,0.40
2022-10-11T11:19:16.298Z,0.50
2022-10-11T11:20:37.200Z,0.50
2022-10-11T11:21:49.201Z,0.40
2022-10-11T11:23:00.102Z,0.40
2022-10-11T11:24:13.789Z,0.50
2022-10-11T11:25:28.396Z,0.30
2022-10-11T11:26:44.032Z,0.40
2022-10-11T11:27:59.793Z,0.38
2022-10-11T11:29:14.621Z,0.40
2022-10-11T11:30:22.906Z,0.40
2022-10-11T11:31:47.148Z,0.40
2022-10-11T11:32:59.819Z,0.43
2022-10-11T11:34:11.746Z,0.30
2022-10-11T11:35:25.888Z,0.20
2022-10-11T11:36:38.435Z,0.30
2022-10-11T11:37:44.849Z,0.30
2022-10-11T11:38:54.000Z,0.30
2022-10-11T11:40:02.833Z,0.30
2022-10-11T11:41:12.432Z,0.30
2022-10-11T11:42:20.823Z,0.30
2022-10-11T11:43:32.636Z,0.40
2022-10-11T11:44:39.144Z,0.35
2022-10-11T11:45:49.272Z,0.30
2022-10-11T11:46:58.455Z,0.30
2022-10-11T11:48:04.242Z,0.30
2022-10-11T11:49:17.404Z,0.40
2022-10-11T11:50:23.916Z,0.30
2022-10-11T11:51:31.559Z,0.30
2022-10-11T11:52:38.252Z,0.30
2022-10-11T11:53:55.183Z,0.30
2022-10-11T11:55:09.921Z,0.40
2022-10-11T11:56:27.532Z,0.40
2022-10-11T11:57:43.084Z,0.30
2022-10-11T11:58:58.824Z,0.30
2022-10-11T12:00:07.291Z,0.30
2022-10-11T12:01:28.805Z,0.30
2022-10-11T12:02:44.908Z,0.30
2022-10-11T12:03:51.809Z,0.30
2022-10-11T12:04:54.264Z,0.30
2022-10-11T12:06:27.287Z,0.30
2022-10-11T12:07:31.254Z,0.30
2022-10-11T12:08:35.807Z,0.30
2022-10-11T12:09:40.518Z,0.20
2022-10-11T12:10:56.983Z,0.30
2022-10-11T12:12:00.463Z,0.40
2022-10-11T12:13:21.411Z,0.30
2022-10-11T12:14:29.930Z,0.30
2022-10-11T12:15:33.945Z,0.40
2022-10-11T12:17:12.931Z,0.30
2022-10-11T12:18:17.870Z,0.30
2022-10-11T12:19:20.776Z,0.30
2022-10-11T12:20:27.254Z,0.20
2022-10-11T12:21:33.326Z,0.30
2022-10-11T12:22:58.217Z,0.30
2022-10-11T12:24:10.717Z,0.30
2022-10-11T12:25:45.271Z,0.30
2022-10-11T12:26:48.999Z,0.40
2022-10-11T12:27:53.745Z,0.32
2022-10-11T12:29:29.237Z,0.40
2022-10-11T12:30:54.603Z,0.30
2022-10-11T12:32:48.421Z,0.40
2022-10-11T12:34:17.011Z,0.30
2022-10-11T12:35:42.626Z,0.30
2022-10-11T12:36:47.253Z,0.30
2022-10-11T12:37:51.515Z,0.30
2022-10-11T12:39:27.937Z,0.30
2022-10-11T12:40:37.414Z,0.40
2022-10-11T12:42:06.447Z,0.40
2022-10-11T12:43:28.148Z,0.40
2022-10-11T12:44:32.854Z,0.40
2022-10-11T12:45:35.404Z,0.40
2022-10-11T12:46:45.685Z,0.30
2022-10-11T12:48:59.956Z,0.38
2022-10-11T12:50:15.747Z,0.40
2022-10-11T12:51:34.413Z,0.50
2022-10-11T12:52:44.677Z,0.30
2022-10-11T12:55:50.087Z,0.30
2022-10-11T12:57:13.127Z,0.38
2022-10-11T12:58:28.913Z,0.40
2022-10-11T12:59:32.228Z,0.30
2022-10-11T13:00:45.713Z,0.30
2022-10-11T13:01:52.568Z,0.30
2022-10-11T13:02:57.657Z,0.40
2022-10-11T13:04:07.019Z,0.30
2022-10-11T13:05:19.965Z,0.40
2022-10-11T13:06:26.531Z,0.40
2022-10-11T13:07:28.732Z,0.40
2022-10-11T13:08:35.790Z,0.40
2022-10-11T13:09:43.171Z,0.40
2022-10-11T13:10:48.387Z,0.40
2022-10-11T13:11:55.130Z,0.30
2022-10-11T13:13:00.035Z,0.30
2022-10-11T13:14:09.675Z,0.30
2022-10-11T13:15:16.761Z,0.38
2022-10-11T13:16:22.154Z,0.40
2022-10-11T13:17:27.973Z,0.30
2022-10-11T13:18:31.256Z,0.40
2022-10-11T13:19:36.731Z,0.30
2022-10-11T13:20:41.787Z,0.30
2022-10-11T13:21:52.263Z,0.30
2022-10-11T13:22:57.024Z,0.30
2022-10-11T13:24:01.183Z,0.40
2022-10-11T13:25:07.576Z,0.30
2022-10-11T13:26:09.797Z,0.40
2022-10-11T13:27:21.470Z,0.32
2022-10-11T13:28:24.130Z,0.32
2022-10-11T13:29:33.649Z,0.30
2022-10-11T13:30:38.618Z,0.30
2022-10-11T13:31:41.517Z,0.30
2022-10-11T13:32:45.071Z,0.40
2022-10-11T13:33:48.800Z,0.30
2022-10-11T13:36:06.719Z,0.40
2022-10-11T13:37:17.433Z,0.40
2022-10-11T13:38:23.877Z,0.40
2022-10-11T13:39:31.544Z,0.30
2022-10-11T13:40:34.422Z,0.30
2022-10-11T13:41:37.677Z,0.40
2022-10-11T13:42:40.461Z,0.32
2022-10-11T13:43:45.073Z,0.40
2022-10-11T13:44:47.753Z,0.30
2022-10-11T13:45:51.110Z,0.40
2022-10-11T13:46:53.901Z,0.30
2022-10-11T13:47:57.894Z,0.30
2022-10-11T13:49:03.221Z,0.40
2022-10-11T13:50:19.501Z,0.22
2022-10-11T13:51:29.664Z,0.30
2022-10-11T13:53:35.908Z,0.40
2022-10-11T13:54:59.002Z,0.30
2022-10-11T13:56:05.437Z,0.30
2022-10-11T13:57:13.492Z,0.40
2022-10-11T13:58:20.643Z,0.30
2022-10-11T13:59:28.141Z,0.40
2022-10-11T14:00:34.447Z,0.30
2022-10-11T14:01:39.883Z,0.30
2022-10-11T14:02:49.401Z,0.30
2022-10-11T14:03:57.913Z,0.30
2022-10-11T14:05:02.443Z,0.30
2022-10-11T14:06:06.154Z,0.30
2022-10-11T14:07:24.637Z,0.30
2022-10-11T14:08:36.492Z,0.30
2022-10-11T14:09:39.629Z,0.30
2022-10-11T14:10:46.656Z,0.30
2022-10-11T14:11:49.764Z,0.30
2022-10-11T14:13:01.143Z,0.30
2022-10-11T14:14:37.122Z,0.30
2022-10-11T14:15:40.159Z,0.30
2022-10-11T14:16:42.088Z,0.30
2022-10-11T14:17:46.650Z,0.30
2022-10-11T14:18:50.895Z,0.30
2022-10-11T14:20:13.043Z,0.30
2022-10-11T14:21:31.544Z,0.25
2022-10-11T14:22:33.491Z,0.30
2022-10-11T14:23:36.385Z,0.30
2022-10-11T14:24:38.217Z,0.30
2022-10-11T14:25:41.823Z,0.20
2022-10-11T14:26:46.061Z,0.30
2022-10-11T14:27:50.070Z,0.20
2022-10-11T14:28:56.876Z,0.20
2022-10-11T14:30:26.505Z,0.32
2022-10-11T14:31:23.863Z,0.30
2022-10-11T14:32:33.411Z,0.30
2022-10-11T14:33:35.424Z,0.40
2022-10-11T14:34:39.212Z,0.30
2022-10-11T14:35:43.564Z,0.20
2022-10-11T14:36:47.236Z,0.22
2022-10-11T14:37:49.840Z,0.30
2022-10-11T14:38:53.601Z,0.30
2022-10-11T14:39:56.735Z,0.30
2022-10-11T14:40:58.624Z,0.30
2022-10-11T14:42:01.893Z,0.38
2022-10-11T14:43:04.281Z,0.40
2022-10-11T14:44:07.358Z,0.20
2022-10-11T14:45:10.277Z,0.30
2022-10-11T14:46:22.270Z,0.30
2022-10-11T14:47:25.515Z,0.30
2022-10-11T14:48:50.485Z,0.30
2022-10-11T14:49:50.664Z,0.40
2022-10-11T14:50:59.026Z,0.40
2022-10-11T14:52:03.748Z,0.30
2022-10-11T14:53:10.844Z,0.40
2022-10-11T14:54:14.844Z,0.30
2022-10-11T14:55:18.269Z,0.40
2022-10-11T14:56:23.972Z,0.35
2022-10-11T14:57:27.921Z,0.38
2022-10-11T14:58:30.230Z,0.30
2022-10-11T14:59:36.367Z,0.40
2022-10-11T15:00:39.054Z,0.30
2022-10-11T15:01:42.915Z,0.35
2022-10-11T15:02:45.581Z,0.30
2022-10-11T15:03:48.977Z,0.22
2022-10-11T15:04:53.377Z,0.30